Time;durP1;ratioP1;P1;durP2;ratioP2;P2;SDS_P1;SDS_P2;PMS_P1;PMS_P2;Temp;Humidity;BMP_temperature;BMP_pressure;BME280_temperature;BME280_humidity;BME280_pressure;Samples;Min_cycle;Max_cycle;Signal;HPM_P1;HPM_P2
2023/12/31 00:00:17;;;;;;;5.72;3.53;;;;;;;;;;5121364;27;20395;-65
2023/12/31 00:02:43;;;;;;;5.68;3.65;;;;;;;;;;5121103;27;20152;-65
2023/12/31 00:05:09;;;;;;;5.75;3.00;;;;;;;;;;5118586;27;20114;-64
2023/12/31 00:07:41;;;;;;;6.55;3.00;;;;;;;;;;5119487;27;20043;-63
2023/12/31 00:10:08;;;;;;;6.25;3.08;;;;;;;;;;5121348;27;20053;-64
2023/12/31 00:12:34;;;;;;;4.55;2.75;;;;;;;;;;5120393;27;20058;-63
2023/12/31 00:15:01;;;;;;;4.53;2.97;;;;;;;;;;5121387;27;20662;-65
2023/12/31 00:17:27;;;;;;;6.05;3.22;;;;;;;;;;5117881;27;20039;-65
2023/12/31 00:19:53;;;;;;;5.70;3.15;;;;;;;;;;5120493;27;20094;-64
2023/12/31 00:22:19;;;;;;;5.53;2.88;;;;;;;;;;5119140;27;20043;-64
2023/12/31 00:24:45;;;;;;;5.28;3.33;;;;;;;;;;5101872;28;20444;-65
2023/12/31 00:27:11;;;;;;;6.32;3.45;;;;;;;;;;5120366;28;20126;-65
2023/12/31 00:29:37;;;;;;;4.20;2.83;;;;;;;;;;5122063;27;20426;-64
2023/12/31 00:32:04;;;;;;;4.25;2.83;;;;;;;;;;5120415;27;20460;-64
2023/12/31 00:34:30;;;;;;;5.47;3.08;;;;;;;;;;5102197;27;20062;-63
2023/12/31 00:36:56;;;;;;;5.22;2.92;;;;;;;;;;5118747;28;20635;-64
2023/12/31 00:39:22;;;;;;;4.70;3.15;;;;;;;;;;5119629;28;20059;-65
2023/12/31 00:41:48;;;;;;;6.75;2.97;;;;;;;;;;5119944;28;20176;-65
2023/12/31 00:44:14;;;;;;;5.43;3.28;;;;;;;;;;5120648;27;20043;-65
2023/12/31 00:46:40;;;;;;;4.88;3.40;;;;;;;;;;5123113;27;20715;-65
2023/12/31 00:49:07;;;;;;;6.03;2.78;;;;;;;;;;5124755;27;20050;-64
2023/12/31 00:51:33;;;;;;;4.57;3.65;;;;;;;;;;5124498;27;20047;-66
2023/12/31 00:53:59;;;;;;;4.25;2.97;;;;;;;;;;5123835;27;20046;-64
2023/12/31 00:56:25;;;;;;;3.80;2.92;;;;;;;;;;5123725;27;20165;-66
2023/12/31 00:58:51;;;;;;;3.97;3.05;;;;;;;;;;5124491;27;20442;-65
2023/12/31 01:01:17;;;;;;;4.28;2.78;;;;;;;;;;5123744;27;20137;-65
2023/12/31 01:03:43;;;;;;;3.88;3.00;;;;;;;;;;5124311;27;20433;-66
2023/12/31 01:06:10;;;;;;;5.00;2.70;;;;;;;;;;5124695;27;20503;-64
2023/12/31 01:08:36;;;;;;;5.60;3.00;;;;;;;;;;5124098;27;21416;-64
2023/12/31 01:11:02;;;;;;;6.38;2.95;;;;;;;;;;5124756;27;20069;-66
2023/12/31 01:13:29;;;;;;;5.18;3.38;;;;;;;;;;5123807;27;21232;-65
2023/12/31 01:15:55;;;;;;;3.58;2.65;;;;;;;;;;5124675;27;20447;-64
2023/12/31 01:18:21;;;;;;;3.85;2.28;;;;;;;;;;5124610;27;20226;-64
2023/12/31 01:20:47;;;;;;;4.55;3.00;;;;;;;;;;5124157;27;20096;-65
2023/12/31 01:23:13;;;;;;;4.30;2.72;;;;;;;;;;5123132;27;20043;-64
2023/12/31 01:25:39;;;;;;;3.10;2.00;;;;;;;;;;5123821;27;20086;-65
2023/12/31 01:28:06;;;;;;;3.83;2.47;;;;;;;;;;5123681;27;20070;-65
2023/12/31 01:30:32;;;;;;;7.75;3.42;;;;;;;;;;5123372;27;20039;-65
2023/12/31 01:32:58;;;;;;;5.30;2.85;;;;;;;;;;5124586;27;20039;-66
2023/12/31 01:35:24;;;;;;;3.40;2.35;;;;;;;;;;5124032;27;20097;-64
2023/12/31 01:37:50;;;;;;;5.20;3.20;;;;;;;;;;5123408;27;20059;-65
2023/12/31 01:40:17;;;;;;;4.75;2.55;;;;;;;;;;5122806;27;20161;-64
2023/12/31 01:42:44;;;;;;;4.38;2.15;;;;;;;;;;5124331;27;20126;-63
2023/12/31 01:45:10;;;;;;;5.50;2.65;;;;;;;;;;5123529;27;20074;-63
2023/12/31 01:47:37;;;;;;;4.00;2.55;;;;;;;;;;5124198;27;20096;-64
2023/12/31 01:50:04;;;;;;;3.60;2.10;;;;;;;;;;5124118;27;20308;-64
2023/12/31 01:52:31;;;;;;;4.18;2.33;;;;;;;;;;5123422;27;20125;-64
2023/12/31 01:55:00;;;;;;;2.88;2.17;;;;;;;;;;5122869;27;20039;-64
2023/12/31 01:57:27;;;;;;;4.75;2.25;;;;;;;;;;5121309;27;20047;-65
2023/12/31 01:59:55;;;;;;;3.97;2.13;;;;;;;;;;5123599;27;20050;-65
2023/12/31 02:02:25;;;;;;;4.10;2.10;;;;;;;;;;5103904;27;20498;-64
2023/12/31 02:04:51;;;;;;;4.03;1.98;;;;;;;;;;5104984;27;20089;-64
2023/12/31 02:07:18;;;;;;;5.68;2.35;;;;;;;;;;5123194;27;20406;-64
2023/12/31 02:09:44;;;;;;;3.33;1.63;;;;;;;;;;5123471;27;20043;-65
2023/12/31 02:12:10;;;;;;;3.47;1.90;;;;;;;;;;5122390;27;20066;-64
2023/12/31 02:14:37;;;;;;;3.15;1.83;;;;;;;;;;5122721;27;20050;-64
2023/12/31 02:17:03;;;;;;;3.83;2.22;;;;;;;;;;5122834;27;20465;-64
2023/12/31 02:19:29;;;;;;;7.18;2.60;;;;;;;;;;5122784;27;20046;-64
2023/12/31 02:21:55;;;;;;;3.17;1.67;;;;;;;;;;5121655;27;20495;-64
2023/12/31 02:24:25;;;;;;;2.15;1.55;;;;;;;;;;5123300;27;20050;-63
2023/12/31 02:26:52;;;;;;;2.85;1.88;;;;;;;;;;5122005;27;20440;-63
2023/12/31 02:29:18;;;;;;;3.50;1.77;;;;;;;;;;5123035;27;20043;-64
2023/12/31 02:31:44;;;;;;;3.80;1.88;;;;;;;;;;5121609;27;20482;-63
2023/12/31 02:34:11;;;;;;;4.78;2.30;;;;;;;;;;5123561;27;20056;-65
2023/12/31 02:36:37;;;;;;;3.97;1.58;;;;;;;;;;5122470;27;20593;-64
2023/12/31 02:39:03;;;;;;;3.33;1.70;;;;;;;;;;5119011;27;20059;-64
2023/12/31 02:41:31;;;;;;;4.18;1.80;;;;;;;;;;5120900;27;20039;-64
2023/12/31 02:43:58;;;;;;;4.47;1.92;;;;;;;;;;5121646;27;20198;-64
2023/12/31 02:46:24;;;;;;;2.33;1.90;;;;;;;;;;5102651;27;20043;-65
2023/12/31 02:48:50;;;;;;;4.30;2.10;;;;;;;;;;5122846;27;20067;-64
2023/12/31 02:51:16;;;;;;;5.10;2.15;;;;;;;;;;5121123;27;20574;-64
2023/12/31 02:53:42;;;;;;;2.08;1.48;;;;;;;;;;5121168;27;20046;-64
2023/12/31 02:56:08;;;;;;;4.50;1.98;;;;;;;;;;5120719;27;20130;-65
2023/12/31 02:58:34;;;;;;;4.10;1.38;;;;;;;;;;5121716;27;20039;-63
2023/12/31 03:01:00;;;;;;;3.58;2.17;;;;;;;;;;5120286;27;20043;-64
2023/12/31 03:03:27;;;;;;;3.30;1.95;;;;;;;;;;5120885;27;20035;-63
2023/12/31 03:05:53;;;;;;;3.90;1.67;;;;;;;;;;5122554;27;20035;-64
2023/12/31 03:08:19;;;;;;;2.35;1.40;;;;;;;;;;5120297;27;20042;-64
2023/12/31 03:10:45;;;;;;;2.33;1.52;;;;;;;;;;5122705;27;20038;-64
2023/12/31 03:13:11;;;;;;;3.40;1.83;;;;;;;;;;5105457;27;20023;-64
2023/12/31 03:15:37;;;;;;;2.22;1.10;;;;;;;;;;5123783;27;20509;-64
2023/12/31 03:18:04;;;;;;;2.60;1.52;;;;;;;;;;5124891;27;20569;-65
2023/12/31 03:20:30;;;;;;;2.08;1.20;;;;;;;;;;5123851;27;20245;-64
2023/12/31 03:22:56;;;;;;;3.10;1.90;;;;;;;;;;5124220;27;20050;-65
2023/12/31 03:25:22;;;;;;;3.15;1.52;;;;;;;;;;5124127;27;20075;-64
2023/12/31 03:27:48;;;;;;;2.67;1.60;;;;;;;;;;5124307;27;20083;-64
2023/12/31 03:30:15;;;;;;;4.25;1.40;;;;;;;;;;5124572;27;20454;-64
2023/12/31 03:32:41;;;;;;;2.17;1.42;;;;;;;;;;5124486;27;20127;-63
2023/12/31 03:35:07;;;;;;;1.63;1.00;;;;;;;;;;5124769;27;20126;-64
2023/12/31 03:37:34;;;;;;;2.28;1.40;;;;;;;;;;5100579;28;20052;-65
2023/12/31 03:40:00;;;;;;;2.20;1.48;;;;;;;;;;5103646;28;20043;-64
2023/12/31 03:42:26;;;;;;;3.28;1.45;;;;;;;;;;5103639;28;20150;-64
2023/12/31 03:44:52;;;;;;;1.98;1.25;;;;;;;;;;5104098;28;20494;-64
2023/12/31 03:47:18;;;;;;;3.65;1.42;;;;;;;;;;5103925;28;20036;-64
2023/12/31 03:49:44;;;;;;;3.50;1.52;;;;;;;;;;5104694;28;20058;-64
2023/12/31 03:52:11;;;;;;;2.92;1.42;;;;;;;;;;5101484;28;20505;-65
2023/12/31 03:54:41;;;;;;;2.97;1.40;;;;;;;;;;5102907;28;20259;-65
2023/12/31 03:57:07;;;;;;;3.72;1.10;;;;;;;;;;5103324;28;20047;-64
2023/12/31 03:59:33;;;;;;;1.77;1.30;;;;;;;;;;5103440;28;20040;-64
2023/12/31 04:01:59;;;;;;;3.28;1.50;;;;;;;;;;5103590;28;20098;-63
2023/12/31 04:04:25;;;;;;;4.32;2.33;;;;;;;;;;5084682;28;20071;-64
2023/12/31 04:06:51;;;;;;;2.83;1.20;;;;;;;;;;5103062;28;20054;-64
2023/12/31 04:09:17;;;;;;;2.35;1.23;;;;;;;;;;5103346;28;20043;-63
2023/12/31 04:11:43;;;;;;;1.70;1.23;;;;;;;;;;5102258;28;20075;-63
2023/12/31 04:14:10;;;;;;;2.30;1.13;;;;;;;;;;5103386;28;20213;-64
2023/12/31 04:16:36;;;;;;;2.38;1.55;;;;;;;;;;5103056;28;20040;-65
2023/12/31 04:19:02;;;;;;;3.67;1.05;;;;;;;;;;5102868;28;20058;-64
2023/12/31 04:21:28;;;;;;;3.42;1.65;;;;;;;;;;5103002;28;20065;-64
2023/12/31 04:23:54;;;;;;;1.55;1.00;;;;;;;;;;5102808;28;20043;-65
2023/12/31 04:26:20;;;;;;;2.20;1.38;;;;;;;;;;5103552;28;20048;-64
2023/12/31 04:28:46;;;;;;;1.73;1.20;;;;;;;;;;5102802;28;20757;-64
2023/12/31 04:31:12;;;;;;;3.75;1.52;;;;;;;;;;5103371;28;20126;-66
2023/12/31 04:33:38;;;;;;;3.90;1.58;;;;;;;;;;5103114;28;20039;-65
2023/12/31 04:36:05;;;;;;;1.95;1.48;;;;;;;;;;5102985;28;21050;-64
2023/12/31 04:38:33;;;;;;;3.92;1.17;;;;;;;;;;5117803;28;20039;-65
2023/12/31 04:40:59;;;;;;;5.72;1.35;;;;;;;;;;5086897;28;20042;-65
2023/12/31 04:43:25;;;;;;;1.73;1.23;;;;;;;;;;5104350;28;20039;-65
2023/12/31 04:45:51;;;;;;;3.17;1.50;;;;;;;;;;5123102;28;20126;-64
2023/12/31 04:48:17;;;;;;;3.78;1.73;;;;;;;;;;5104256;28;20039;-64
2023/12/31 04:50:43;;;;;;;3.22;2.25;;;;;;;;;;5123463;27;20046;-64
2023/12/31 04:53:09;;;;;;;3.15;1.67;;;;;;;;;;5122574;27;20088;-64
2023/12/31 04:55:35;;;;;;;2.45;1.60;;;;;;;;;;5123273;27;20161;-64
2023/12/31 04:58:02;;;;;;;3.38;1.40;;;;;;;;;;5123124;27;20182;-64
2023/12/31 05:00:29;;;;;;;3.28;1.80;;;;;;;;;;5123724;28;20199;-64
2023/12/31 05:02:55;;;;;;;3.40;1.80;;;;;;;;;;5119596;27;20071;-64
2023/12/31 05:05:22;;;;;;;6.22;1.98;;;;;;;;;;5123778;27;20041;-64
2023/12/31 05:07:48;;;;;;;2.63;1.95;;;;;;;;;;5122123;28;20044;-65
2023/12/31 05:10:14;;;;;;;2.92;1.67;;;;;;;;;;5123435;28;20513;-64
2023/12/31 05:12:40;;;;;;;2.88;1.73;;;;;;;;;;5123494;28;20035;-64
2023/12/31 05:15:07;;;;;;;3.70;1.92;;;;;;;;;;5123019;28;20256;-64
2023/12/31 05:17:33;;;;;;;3.40;1.85;;;;;;;;;;5122762;28;20038;-64
2023/12/31 05:19:59;;;;;;;2.50;1.48;;;;;;;;;;5100637;28;20532;-64
2023/12/31 05:22:25;;;;;;;2.55;1.58;;;;;;;;;;5102989;28;20043;-64
2023/12/31 05:24:51;;;;;;;2.47;1.25;;;;;;;;;;5123140;27;20162;-65
2023/12/31 05:27:19;;;;;;;2.90;1.85;;;;;;;;;;5103225;28;20047;-64
2023/12/31 05:29:45;;;;;;;2.63;1.58;;;;;;;;;;5120576;28;20031;-64
2023/12/31 05:32:11;;;;;;;3.45;1.90;;;;;;;;;;5122778;27;20042;-64
2023/12/31 05:34:37;;;;;;;3.28;1.80;;;;;;;;;;5126045;27;20439;-65
2023/12/31 05:37:04;;;;;;;6.28;2.38;;;;;;;;;;5123909;27;20055;-65
2023/12/31 05:39:30;;;;;;;3.63;1.73;;;;;;;;;;5124081;27;20080;-65
2023/12/31 05:41:56;;;;;;;2.50;1.58;;;;;;;;;;5122822;27;20123;-64
2023/12/31 05:44:22;;;;;;;2.42;1.42;;;;;;;;;;5123148;27;20084;-63
2023/12/31 05:46:48;;;;;;;3.13;1.60;;;;;;;;;;5124867;27;20031;-63
2023/12/31 05:49:14;;;;;;;5.63;1.88;;;;;;;;;;5125624;27;20197;-65
2023/12/31 05:51:40;;;;;;;4.28;2.05;;;;;;;;;;5125548;27;20050;-64
2023/12/31 05:54:06;;;;;;;3.83;1.60;;;;;;;;;;5126032;27;20510;-65
2023/12/31 05:56:32;;;;;;;3.63;1.30;;;;;;;;;;5106108;27;20043;-65
2023/12/31 05:58:58;;;;;;;2.42;1.30;;;;;;;;;;5125546;27;20031;-64
2023/12/31 06:01:24;;;;;;;2.58;1.40;;;;;;;;;;5125301;27;20038;-64
2023/12/31 06:03:51;;;;;;;2.53;1.35;;;;;;;;;;5125497;27;20060;-64
2023/12/31 06:06:17;;;;;;;3.35;1.83;;;;;;;;;;5125078;27;20221;-65
2023/12/31 06:08:43;;;;;;;2.83;1.60;;;;;;;;;;5125779;27;20124;-65
2023/12/31 06:11:10;;;;;;;2.55;1.50;;;;;;;;;;5125811;27;20057;-65
2023/12/31 06:13:36;;;;;;;2.58;1.58;;;;;;;;;;5125291;27;20034;-65
2023/12/31 06:16:02;;;;;;;4.25;1.92;;;;;;;;;;5125447;27;20043;-65
2023/12/31 06:18:28;;;;;;;3.70;2.03;;;;;;;;;;5125497;27;20138;-64
2023/12/31 06:20:54;;;;;;;4.63;1.80;;;;;;;;;;5125429;27;21559;-64
2023/12/31 06:23:21;;;;;;;3.92;1.60;;;;;;;;;;5124635;27;20043;-63
2023/12/31 06:25:47;;;;;;;2.88;1.50;;;;;;;;;;5125664;27;20039;-64
2023/12/31 06:28:13;;;;;;;4.60;2.42;;;;;;;;;;5124450;27;20035;-64
2023/12/31 06:30:39;;;;;;;3.90;2.08;;;;;;;;;;5125876;27;20106;-65
2023/12/31 06:33:05;;;;;;;4.72;1.70;;;;;;;;;;5125345;27;20047;-65
2023/12/31 06:35:31;;;;;;;3.92;1.70;;;;;;;;;;5125582;27;20038;-65
2023/12/31 06:37:57;;;;;;;2.78;1.70;;;;;;;;;;5124521;27;20055;-64
2023/12/31 06:40:24;;;;;;;4.43;2.33;;;;;;;;;;5125718;27;20046;-64
2023/12/31 06:42:50;;;;;;;5.18;2.13;;;;;;;;;;5104291;27;20510;-65
2023/12/31 06:45:16;;;;;;;2.67;1.98;;;;;;;;;;5125469;27;20035;-63
2023/12/31 06:47:42;;;;;;;3.05;2.15;;;;;;;;;;5124558;27;20540;-65
2023/12/31 06:50:10;;;;;;;3.92;1.88;;;;;;;;;;5125619;27;20470;-65
2023/12/31 06:52:36;;;;;;;4.30;2.10;;;;;;;;;;5123450;27;20545;-64
2023/12/31 06:55:03;;;;;;;4.35;2.20;;;;;;;;;;5106494;27;20042;-64
2023/12/31 06:57:29;;;;;;;4.55;2.70;;;;;;;;;;5123448;27;20074;-64
2023/12/31 06:59:55;;;;;;;4.20;2.40;;;;;;;;;;5125390;27;20039;-64
2023/12/31 07:02:21;;;;;;;3.13;2.40;;;;;;;;;;5123880;27;20039;-64
2023/12/31 07:04:47;;;;;;;3.75;2.15;;;;;;;;;;5125356;27;20073;-64
2023/12/31 07:07:13;;;;;;;2.83;1.92;;;;;;;;;;5118657;27;20130;-65
2023/12/31 07:09:39;;;;;;;3.72;2.08;;;;;;;;;;5122118;27;20181;-66
2023/12/31 07:12:06;;;;;;;3.47;2.22;;;;;;;;;;5121308;27;20053;-64
2023/12/31 07:14:32;;;;;;;4.93;2.45;;;;;;;;;;5122579;27;20494;-65
2023/12/31 07:16:58;;;;;;;6.68;3.03;;;;;;;;;;5122269;27;20074;-65
2023/12/31 07:19:24;;;;;;;3.78;2.47;;;;;;;;;;5122181;27;20505;-65
2023/12/31 07:21:50;;;;;;;6.43;2.42;;;;;;;;;;5121375;27;20047;-65
2023/12/31 07:24:16;;;;;;;4.35;2.35;;;;;;;;;;5122750;27;20042;-65
2023/12/31 07:26:42;;;;;;;3.20;2.30;;;;;;;;;;5121132;27;20618;-65
2023/12/31 07:29:09;;;;;;;3.33;2.40;;;;;;;;;;5122201;27;20131;-65
2023/12/31 07:31:36;;;;;;;3.30;1.92;;;;;;;;;;5122205;27;20464;-64
2023/12/31 07:34:03;;;;;;;3.17;1.98;;;;;;;;;;5122158;27;20118;-66
2023/12/31 07:36:29;;;;;;;3.63;2.15;;;;;;;;;;5121327;27;20090;-65
2023/12/31 07:38:55;;;;;;;3.28;1.60;;;;;;;;;;5120443;27;20047;-65
2023/12/31 07:41:21;;;;;;;4.25;2.35;;;;;;;;;;5121182;27;20050;-65
2023/12/31 07:43:48;;;;;;;3.13;2.20;;;;;;;;;;5121916;27;20039;-65
2023/12/31 07:46:14;;;;;;;3.63;2.13;;;;;;;;;;5120226;27;20320;-65
2023/12/31 07:48:40;;;;;;;2.45;1.90;;;;;;;;;;5121096;27;20043;-65
2023/12/31 07:51:08;;;;;;;2.67;1.73;;;;;;;;;;5121322;27;20039;-64
2023/12/31 07:53:35;;;;;;;3.22;2.42;;;;;;;;;;5120309;27;20224;-64
2023/12/31 07:56:01;;;;;;;6.50;2.72;;;;;;;;;;5118907;27;20039;-64
2023/12/31 07:58:27;;;;;;;3.85;2.30;;;;;;;;;;5120111;27;20051;-65
2023/12/31 08:00:55;;;;;;;3.00;1.88;;;;;;;;;;5122103;27;21016;-65
2023/12/31 08:03:21;;;;;;;3.20;2.35;;;;;;;;;;5120592;27;20111;-64
2023/12/31 08:05:47;;;;;;;3.90;1.98;;;;;;;;;;5118209;27;20121;-65
2023/12/31 08:08:13;;;;;;;3.00;2.10;;;;;;;;;;5120360;27;20045;-62
2023/12/31 08:10:44;;;;;;;4.68;2.22;;;;;;;;;;5102490;27;20039;-64
2023/12/31 08:13:11;;;;;;;4.30;2.45;;;;;;;;;;5120880;27;20055;-64
2023/12/31 08:15:37;;;;;;;2.97;2.20;;;;;;;;;;5121741;27;20047;-63
2023/12/31 08:18:04;;;;;;;3.42;2.10;;;;;;;;;;5120816;27;20035;-64
2023/12/31 08:20:30;;;;;;;4.72;2.97;;;;;;;;;;5101620;27;20411;-64
2023/12/31 08:22:57;;;;;;;3.10;2.15;;;;;;;;;;5120113;27;20046;-64
2023/12/31 08:25:24;;;;;;;3.55;2.28;;;;;;;;;;5121267;27;20506;-63
2023/12/31 08:27:50;;;;;;;3.72;2.08;;;;;;;;;;5116752;28;20039;-65
2023/12/31 08:30:16;;;;;;;3.63;2.17;;;;;;;;;;5120245;28;20084;-64
2023/12/31 08:32:42;;;;;;;4.78;2.35;;;;;;;;;;5120955;27;20088;-64
2023/12/31 08:35:10;;;;;;;2.80;1.98;;;;;;;;;;5120015;28;20509;-65
2023/12/31 08:37:36;;;;;;;6.13;2.75;;;;;;;;;;5119028;28;20192;-65
2023/12/31 08:40:03;;;;;;;5.75;2.72;;;;;;;;;;5120120;28;20046;-65
2023/12/31 08:42:29;;;;;;;7.35;2.42;;;;;;;;;;5102050;28;21112;-63
2023/12/31 08:44:55;;;;;;;3.08;2.20;;;;;;;;;;5120132;27;20091;-64
2023/12/31 08:47:22;;;;;;;4.18;2.30;;;;;;;;;;5121389;28;20070;-64
2023/12/31 08:49:48;;;;;;;8.15;3.15;;;;;;;;;;5120390;27;20039;-64
2023/12/31 08:52:15;;;;;;;4.03;2.33;;;;;;;;;;5120580;28;20088;-64
2023/12/31 08:54:41;;;;;;;4.35;2.75;;;;;;;;;;5120785;27;20039;-63
2023/12/31 08:57:07;;;;;;;3.20;2.00;;;;;;;;;;5118533;27;20099;-64
2023/12/31 08:59:34;;;;;;;3.70;2.30;;;;;;;;;;5116789;27;20063;-65
2023/12/31 09:02:00;;;;;;;3.85;2.50;;;;;;;;;;5118825;28;20126;-65
2023/12/31 09:04:31;;;;;;;5.32;3.00;;;;;;;;;;5120452;27;20447;-65
2023/12/31 09:06:57;;;;;;;3.85;2.38;;;;;;;;;;5122986;27;20062;-65
2023/12/31 09:09:24;;;;;;;3.78;2.10;;;;;;;;;;5120808;27;20118;-65
2023/12/31 09:11:50;;;;;;;3.63;1.80;;;;;;;;;;5123083;27;20074;-65
2023/12/31 09:14:16;;;;;;;2.72;1.95;;;;;;;;;;5125474;27;20043;-64
2023/12/31 09:16:42;;;;;;;3.95;2.70;;;;;;;;;;5125562;27;20051;-64
2023/12/31 09:19:08;;;;;;;2.63;2.03;;;;;;;;;;5124889;27;20391;-65
2023/12/31 09:21:34;;;;;;;4.43;2.17;;;;;;;;;;5123944;27;20122;-64
2023/12/31 09:24:00;;;;;;;4.22;2.30;;;;;;;;;;5123507;27;20043;-64
2023/12/31 09:26:27;;;;;;;4.63;2.65;;;;;;;;;;5121022;27;20054;-64
2023/12/31 09:28:53;;;;;;;5.43;2.78;;;;;;;;;;5122712;27;20047;-64
2023/12/31 09:31:24;;;;;;;3.70;2.30;;;;;;;;;;5123205;27;20146;-64
2023/12/31 09:33:51;;;;;;;4.43;2.50;;;;;;;;;;5123430;27;20054;-65
2023/12/31 09:36:17;;;;;;;4.72;2.65;;;;;;;;;;5120127;27;20468;-65
2023/12/31 09:38:43;;;;;;;4.75;3.00;;;;;;;;;;5102548;27;20407;-65
2023/12/31 09:41:10;;;;;;;4.60;3.03;;;;;;;;;;5120376;27;20080;-64
2023/12/31 09:43:36;;;;;;;6.63;3.10;;;;;;;;;;5123815;27;20043;-65
2023/12/31 09:46:04;;;;;;;4.97;2.85;;;;;;;;;;5120968;27;20042;-65
2023/12/31 09:48:30;;;;;;;4.45;2.55;;;;;;;;;;5104162;27;20471;-64
2023/12/31 09:50:56;;;;;;;6.65;2.50;;;;;;;;;;5123563;27;20042;-65
2023/12/31 09:53:23;;;;;;;5.50;2.75;;;;;;;;;;5121388;27;20047;-64
2023/12/31 09:55:50;;;;;;;6.53;3.00;;;;;;;;;;5123354;27;20138;-65
2023/12/31 09:58:18;;;;;;;4.75;2.40;;;;;;;;;;5122485;27;20476;-65
2023/12/31 10:00:44;;;;;;;5.50;2.50;;;;;;;;;;5123624;27;20381;-65
2023/12/31 10:03:11;;;;;;;4.05;2.38;;;;;;;;;;5122329;27;20038;-65
2023/12/31 10:05:39;;;;;;;4.68;2.80;;;;;;;;;;5122106;27;20042;-65
2023/12/31 10:08:08;;;;;;;5.55;2.80;;;;;;;;;;5121047;27;20039;-65
2023/12/31 10:10:35;;;;;;;5.00;2.53;;;;;;;;;;5122292;27;20433;-64
2023/12/31 10:13:01;;;;;;;5.43;3.17;;;;;;;;;;5122109;27;20074;-65
2023/12/31 10:15:28;;;;;;;4.22;2.67;;;;;;;;;;5121770;27;20093;-65
2023/12/31 10:17:55;;;;;;;4.72;2.65;;;;;;;;;;5121779;27;20043;-64
2023/12/31 10:20:21;;;;;;;3.47;2.90;;;;;;;;;;5103151;27;20456;-65
2023/12/31 10:22:47;;;;;;;4.20;2.97;;;;;;;;;;5102526;27;20043;-66
2023/12/31 10:25:14;;;;;;;6.90;3.42;;;;;;;;;;5103393;27;20082;-65
2023/12/31 10:27:41;;;;;;;4.97;3.17;;;;;;;;;;5121555;27;20047;-65
2023/12/31 10:30:11;;;;;;;3.80;3.08;;;;;;;;;;5122837;27;20393;-65
2023/12/31 10:32:38;;;;;;;4.00;2.90;;;;;;;;;;5122807;27;20050;-65
2023/12/31 10:35:04;;;;;;;5.85;2.83;;;;;;;;;;5119749;27;20095;-64
2023/12/31 10:37:31;;;;;;;5.90;3.35;;;;;;;;;;5101403;27;20077;-64
2023/12/31 10:39:57;;;;;;;5.88;2.92;;;;;;;;;;5119132;27;20549;-64
2023/12/31 10:42:23;;;;;;;5.05;2.70;;;;;;;;;;5122731;27;20096;-64
2023/12/31 10:44:53;;;;;;;4.00;3.00;;;;;;;;;;5086006;27;20045;-65
2023/12/31 10:47:19;;;;;;;6.43;3.83;;;;;;;;;;5122529;27;20065;-65
2023/12/31 10:49:46;;;;;;;5.85;3.08;;;;;;;;;;5121820;27;20058;-65
2023/12/31 10:52:16;;;;;;;5.43;3.10;;;;;;;;;;5121874;27;20050;-63
2023/12/31 10:54:49;;;;;;;4.30;2.75;;;;;;;;;;5122270;27;20031;-63
2023/12/31 10:57:20;;;;;;;;;;;;;;;;;;5122666;27;20103;-64
2023/12/31 10:59:48;;;;;;;5.38;3.42;;;;;;;;;;5121206;27;19957;-64
2023/12/31 11:02:17;;;;;;;5.97;3.22;;;;;;;;;;5120987;27;20051;-64
2023/12/31 11:04:45;;;;;;;4.68;3.10;;;;;;;;;;5121160;27;20058;-65
2023/12/31 11:07:14;;;;;;;4.45;3.22;;;;;;;;;;5121066;27;20042;-63
2023/12/31 11:09:42;;;;;;;3.55;2.45;;;;;;;;;;5121404;27;20057;-64
2023/12/31 11:12:08;;;;;;;6.35;2.20;;;;;;;;;;5121613;27;20047;-65
2023/12/31 11:14:37;;;;;;;2.90;1.65;;;;;;;;;;5121460;27;20053;-65
2023/12/31 11:17:14;;;;;;;2.92;1.55;;;;;;;;;;5122126;27;20096;-64
2023/12/31 11:19:55;;;;;;;3.55;1.90;;;;;;;;;;5122095;27;20108;-62
2023/12/31 11:22:21;;;;;;;3.22;1.38;;;;;;;;;;5120638;27;20379;-66
2023/12/31 11:24:47;;;;;;;3.03;1.40;;;;;;;;;;5121612;27;20047;-64
2023/12/31 11:27:17;;;;;;;2.63;1.98;;;;;;;;;;5121552;27;20248;-64
2023/12/31 11:29:50;;;;;;;3.22;1.27;;;;;;;;;;5121001;27;20339;-65
2023/12/31 11:32:17;;;;;;;5.15;1.45;;;;;;;;;;5121349;27;20039;-65
2023/12/31 11:34:43;;;;;;;3.80;1.25;;;;;;;;;;5119637;27;20815;-65
2023/12/31 11:37:09;;;;;;;3.05;1.20;;;;;;;;;;5111062;27;20035;-65
2023/12/31 11:39:35;;;;;;;2.30;1.08;;;;;;;;;;5115637;27;20050;-64
2023/12/31 11:42:09;;;;;;;2.53;1.42;;;;;;;;;;5119648;27;20039;-64
2023/12/31 11:44:37;;;;;;;1.75;1.02;;;;;;;;;;5100483;27;20058;-64
2023/12/31 11:47:03;;;;;;;3.40;1.20;;;;;;;;;;5121030;27;20802;-64
2023/12/31 11:49:29;;;;;;;2.92;0.95;;;;;;;;;;5120984;27;20456;-64
2023/12/31 11:51:56;;;;;;;1.63;1.13;;;;;;;;;;5100752;28;20494;-64
2023/12/31 11:54:37;;;;;;;2.90;1.65;;;;;;;;;;5121142;27;20246;-65
2023/12/31 11:57:03;;;;;;;2.47;1.42;;;;;;;;;;5119462;27;20043;-63
2023/12/31 11:59:39;;;;;;;3.63;1.40;;;;;;;;;;5119744;27;20043;-63
2023/12/31 12:02:06;;;;;;;2.05;1.17;;;;;;;;;;5121132;27;20251;-65
2023/12/31 12:04:33;;;;;;;3.78;1.30;;;;;;;;;;5117150;27;20130;-64
2023/12/31 12:06:59;;;;;;;2.05;1.17;;;;;;;;;;5120646;27;20031;-64
2023/12/31 12:09:26;;;;;;;1.77;1.38;;;;;;;;;;5118265;27;20046;-65
2023/12/31 12:11:52;;;;;;;1.80;1.13;;;;;;;;;;5099752;27;20058;-63
2023/12/31 12:14:18;;;;;;;2.92;1.20;;;;;;;;;;5120008;27;20171;-64
2023/12/31 12:16:45;;;;;;;4.15;1.17;;;;;;;;;;5120806;27;20374;-64
2023/12/31 12:19:11;;;;;;;2.55;1.30;;;;;;;;;;5121262;27;20046;-65
2023/12/31 12:21:37;;;;;;;3.47;1.08;;;;;;;;;;5103205;28;20130;-64
2023/12/31 12:24:04;;;;;;;2.58;1.35;;;;;;;;;;5120826;27;20051;-64
2023/12/31 12:26:31;;;;;;;1.10;0.90;;;;;;;;;;5103120;27;20150;-64
2023/12/31 12:28:57;;;;;;;2.15;1.02;;;;;;;;;;5070121;28;20454;-64
2023/12/31 12:31:23;;;;;;;2.33;1.00;;;;;;;;;;5121901;28;20529;-64
2023/12/31 12:33:53;;;;;;;1.77;1.10;;;;;;;;;;5103357;28;20091;-65
2023/12/31 12:36:20;;;;;;;2.22;0.90;;;;;;;;;;5122829;27;20039;-65
2023/12/31 12:38:48;;;;;;;1.48;0.70;;;;;;;;;;5120103;28;20099;-66
2023/12/31 12:41:21;;;;;;;3.42;1.73;;;;;;;;;;5123192;27;20146;-64
2023/12/31 12:43:51;;;;;;;4.57;1.10;;;;;;;;;;5125233;27;20752;-64
2023/12/31 12:46:17;;;;;;;1.35;0.80;;;;;;;;;;5127297;27;20043;-64
2023/12/31 12:48:50;;;;;;;1.58;0.80;;;;;;;;;;5126839;27;20043;-65
2023/12/31 12:51:16;;;;;;;1.25;0.60;;;;;;;;;;5126303;27;20525;-65
2023/12/31 12:53:42;;;;;;;5.63;1.10;;;;;;;;;;5125058;27;20035;-65
2023/12/31 12:56:08;;;;;;;3.70;2.13;;;;;;;;;;5125675;27;20054;-65
2023/12/31 12:58:34;;;;;;;3.47;1.20;;;;;;;;;;5125857;27;20047;-64
2023/12/31 13:01:01;;;;;;;2.65;1.25;;;;;;;;;;5125019;27;20073;-65
2023/12/31 13:03:27;;;;;;;2.88;1.83;;;;;;;;;;5125480;27;20412;-65
2023/12/31 13:05:53;;;;;;;3.50;1.70;;;;;;;;;;5126196;27;20034;-63
2023/12/31 13:08:19;;;;;;;1.92;0.98;;;;;;;;;;5125488;27;20082;-65
2023/12/31 13:10:45;;;;;;;2.97;1.20;;;;;;;;;;5126635;27;20047;-63
2023/12/31 13:13:11;;;;;;;5.95;1.13;;;;;;;;;;5125637;27;20051;-64
2023/12/31 13:15:38;;;;;;;3.80;1.50;;;;;;;;;;5125791;27;20062;-64
2023/12/31 13:18:04;;;;;;;4.30;1.65;;;;;;;;;;5127162;27;20047;-64
2023/12/31 13:20:31;;;;;;;6.05;1.50;;;;;;;;;;5126585;27;20085;-63
2023/12/31 13:22:58;;;;;;;5.00;1.80;;;;;;;;;;5124809;27;20050;-65
2023/12/31 13:25:24;;;;;;;3.75;1.42;;;;;;;;;;5126439;27;20406;-64
2023/12/31 13:27:51;;;;;;;6.10;1.88;;;;;;;;;;5105690;27;20102;-64
2023/12/31 13:30:17;;;;;;;3.90;1.30;;;;;;;;;;5125091;27;20494;-65
2023/12/31 13:32:44;;;;;;;3.45;1.45;;;;;;;;;;5125600;27;20055;-65
2023/12/31 13:35:10;;;;;;;4.22;1.52;;;;;;;;;;5125469;27;20887;-65
2023/12/31 13:37:36;;;;;;;3.55;1.40;;;;;;;;;;5124227;27;20078;-65
2023/12/31 13:40:04;;;;;;;3.47;1.13;;;;;;;;;;5125134;27;20047;-64
2023/12/31 13:42:30;;;;;;;5.85;2.13;;;;;;;;;;5125565;27;20324;-65
2023/12/31 13:44:57;;;;;;;4.28;1.98;;;;;;;;;;5124603;27;20116;-66
2023/12/31 13:47:23;;;;;;;7.00;2.13;;;;;;;;;;5125885;27;20034;-65
2023/12/31 13:49:49;;;;;;;3.75;1.88;;;;;;;;;;5125255;27;20091;-65
2023/12/31 13:52:15;;;;;;;5.65;2.47;;;;;;;;;;5124590;27;20039;-65
2023/12/31 13:54:41;;;;;;;6.75;2.55;;;;;;;;;;5124380;27;20122;-65
2023/12/31 13:57:07;;;;;;;6.45;3.55;;;;;;;;;;5125189;27;20051;-64
2023/12/31 13:59:34;;;;;;;6.65;4.78;;;;;;;;;;5125265;27;20051;-64
2023/12/31 14:02:00;;;;;;;4.70;3.05;;;;;;;;;;5126070;27;20073;-65
2023/12/31 14:04:27;;;;;;;4.10;2.40;;;;;;;;;;5125088;27;20035;-63
2023/12/31 14:06:53;;;;;;;4.25;2.75;;;;;;;;;;5124892;27;20058;-64
2023/12/31 14:09:19;;;;;;;5.18;2.47;;;;;;;;;;5105570;27;20084;-65
2023/12/31 14:11:45;;;;;;;5.75;2.33;;;;;;;;;;5125253;27;20259;-65
2023/12/31 14:14:12;;;;;;;3.78;2.10;;;;;;;;;;5125034;27;20466;-64
2023/12/31 14:16:38;;;;;;;7.40;3.15;;;;;;;;;;5125795;27;20089;-64
2023/12/31 14:19:05;;;;;;;4.47;2.53;;;;;;;;;;5123790;27;20042;-63
2023/12/31 14:21:32;;;;;;;5.55;2.05;;;;;;;;;;5125126;27;20095;-64
2023/12/31 14:23:58;;;;;;;3.88;2.03;;;;;;;;;;5123373;27;20051;-64
2023/12/31 14:26:24;;;;;;;6.43;2.20;;;;;;;;;;5126059;27;20039;-64
2023/12/31 14:28:50;;;;;;;9.18;2.90;;;;;;;;;;5124337;27;20279;-63
2023/12/31 14:31:17;;;;;;;5.53;2.00;;;;;;;;;;5125436;27;20188;-64
2023/12/31 14:33:44;;;;;;;6.05;2.58;;;;;;;;;;5124237;27;20053;-65
2023/12/31 14:36:10;;;;;;;5.85;2.22;;;;;;;;;;5124436;27;20317;-64
2023/12/31 14:38:39;;;;;;;5.00;3.65;;;;;;;;;;5123704;27;20131;-65